createdAt,value
2023-10-28T00:03:41.905Z,0.32
2023-10-28T00:07:45.377Z,0.40
2023-10-28T00:11:48.936Z,0.43
2023-10-28T00:15:53.822Z,0.20
2023-10-28T00:19:56.931Z,0.40
2023-10-28T00:24:00.353Z,0.43
2023-10-28T00:28:04.904Z,0.43
2023-10-28T00:32:10.784Z,0.38
2023-10-28T00:36:14.169Z,0.57
2023-10-28T00:40:19.097Z,0.40
2023-10-28T00:44:22.480Z,0.38
2023-10-28T00:48:27.304Z,0.40
2023-10-28T00:52:30.699Z,0.40
2023-10-28T00:56:34.205Z,0.40
2023-10-28T01:00:37.263Z,0.40
2023-10-28T01:04:42.982Z,0.30
2023-10-28T01:08:46.167Z,0.40
2023-10-28T01:12:49.541Z,0.55
2023-10-28T01:16:52.656Z,0.55
2023-10-28T01:20:57.477Z,0.70
2023-10-28T01:25:01.873Z,0.57
2023-10-28T01:29:05.467Z,0.40
2023-10-28T01:33:09.093Z,0.35
2023-10-28T01:37:12.551Z,0.50
2023-10-28T01:41:17.990Z,0.40
2023-10-28T01:45:22.534Z,0.50
2023-10-28T01:49:25.652Z,0.50
2023-10-28T01:53:28.651Z,0.52
2023-10-28T01:57:33.161Z,0.60
2023-10-28T02:01:37.355Z,0.57
2023-10-28T02:05:40.626Z,0.60
2023-10-28T02:09:44.438Z,0.60
2023-10-28T02:13:49.967Z,0.55
2023-10-28T02:17:53.996Z,0.50
2023-10-28T02:22:10.590Z,0.50
2023-10-28T02:26:19.662Z,0.47
2023-10-28T02:30:24.072Z,0.50
2023-10-28T02:34:27.449Z,0.70
2023-10-28T02:38:30.571Z,0.40
2023-10-28T02:42:33.952Z,0.65
2023-10-28T02:46:39.966Z,0.50
2023-10-28T02:50:43.239Z,0.50
2023-10-28T02:54:47.279Z,0.50
2023-10-28T02:58:50.293Z,0.52
2023-10-28T03:02:56.877Z,0.70
2023-10-28T03:07:00.281Z,0.60
2023-10-28T03:11:04.352Z,0.57
2023-10-28T03:15:10.333Z,0.70
2023-10-28T03:19:15.603Z,0.60
2023-10-28T03:23:18.850Z,0.70
2023-10-28T03:27:22.746Z,0.60
2023-10-28T03:31:25.780Z,0.65
2023-10-28T03:35:31.365Z,0.60
2023-10-28T03:39:34.441Z,0.70
2023-10-28T03:43:38.553Z,0.70
2023-10-28T03:47:41.938Z,0.65
2023-10-28T03:51:47.341Z,0.60
2023-10-28T03:55:50.355Z,0.50
2023-10-28T03:59:54.651Z,0.73
2023-10-28T04:03:57.639Z,0.70
2023-10-28T04:08:03.467Z,0.70
2023-10-28T04:12:07.786Z,0.73
2023-10-28T04:16:11.764Z,0.70
2023-10-28T04:20:14.825Z,0.55
2023-10-28T04:24:20.044Z,0.80
2023-10-28T04:28:23.000Z,0.80
2023-10-28T04:32:27.020Z,0.70
2023-10-28T04:36:30.032Z,1.27
2023-10-28T04:40:37.640Z,0.90
2023-10-28T04:44:40.613Z,0.90
2023-10-28T04:48:44.622Z,0.70
2023-10-28T04:52:47.628Z,0.82
2023-10-28T04:56:52.869Z,0.88
2023-10-28T05:00:55.917Z,0.90
2023-10-28T05:04:59.931Z,1.00
2023-10-28T05:09:03.096Z,0.98
2023-10-28T05:13:08.483Z,0.88
2023-10-28T05:17:11.878Z,0.80
2023-10-28T05:21:15.906Z,1.25
2023-10-28T05:25:19.840Z,0.80
2023-10-28T05:29:24.755Z,1.38
2023-10-28T05:33:27.730Z,0.70
2023-10-28T05:37:31.500Z,0.70
2023-10-28T05:41:34.510Z,0.75
2023-10-28T05:45:40.589Z,0.70
2023-10-28T05:49:43.907Z,0.65
2023-10-28T05:53:47.447Z,0.50
2023-10-28T05:57:50.438Z,0.60
2023-10-28T06:01:56.310Z,0.50
2023-10-28T06:05:59.312Z,0.50
2023-10-28T06:10:03.106Z,0.60
2023-10-28T06:14:06.181Z,0.50
2023-10-28T06:18:13.302Z,0.28
2023-10-28T06:22:16.338Z,0.60
2023-10-28T06:26:21.077Z,0.22
2023-10-28T06:30:24.553Z,0.50
2023-10-28T06:34:29.945Z,0.60
2023-10-28T06:38:32.930Z,0.40
2023-10-28T06:42:37.199Z,0.50
2023-10-28T06:46:40.205Z,0.50
2023-10-28T06:50:46.278Z,0.68
2023-10-28T06:54:49.281Z,0.60
2023-10-28T06:58:53.332Z,0.60
2023-10-28T07:02:57.931Z,0.57
2023-10-28T07:07:03.866Z,0.60
2023-10-28T07:11:06.922Z,0.60
2023-10-28T07:15:12.481Z,0.32
2023-10-28T07:19:15.852Z,0.60
2023-10-28T07:23:21.698Z,0.60
2023-10-28T07:27:26.970Z,0.40
2023-10-28T07:31:31.141Z,0.55
2023-10-28T07:35:34.116Z,0.20
2023-10-28T07:39:40.276Z,0.63
2023-10-28T07:43:43.694Z,0.40
2023-10-28T07:47:47.656Z,0.40
2023-10-28T07:51:51.160Z,0.68
2023-10-28T07:55:56.156Z,0.45
2023-10-28T07:59:59.155Z,0.50
2023-10-28T08:04:03.002Z,0.28
2023-10-28T08:08:06.349Z,0.52
2023-10-28T08:12:12.749Z,0.30
2023-10-28T08:16:19.988Z,0.32
2023-10-28T08:20:24.483Z,0.40
2023-10-28T08:24:27.577Z,0.40
2023-10-28T08:28:32.761Z,0.75
2023-10-28T08:32:35.743Z,0.40
2023-10-28T08:36:39.682Z,0.38
2023-10-28T08:40:46.530Z,0.60
2023-10-28T08:44:53.989Z,0.40
2023-10-28T08:49:00.071Z,0.40
2023-10-28T08:53:04.937Z,0.40
2023-10-28T08:57:09.657Z,0.47
2023-10-28T09:01:15.298Z,0.60
2023-10-28T09:05:19.687Z,0.52
2023-10-28T09:09:23.733Z,0.47
2023-10-28T09:13:26.742Z,0.47
2023-10-28T09:17:32.038Z,0.60
2023-10-28T09:21:35.175Z,0.77
2023-10-28T09:25:39.850Z,0.50
2023-10-28T09:29:43.428Z,0.60
2023-10-28T09:33:48.557Z,0.40
2023-10-28T09:37:52.049Z,0.60
2023-10-28T09:41:56.601Z,0.52
2023-10-28T09:45:59.979Z,0.60
2023-10-28T09:50:08.964Z,0.40
2023-10-28T09:54:20.357Z,0.60
2023-10-28T09:58:29.106Z,0.43
2023-10-28T10:02:40.753Z,0.50
2023-10-28T10:06:45.948Z,0.70
2023-10-28T10:10:50.397Z,0.73
2023-10-28T10:14:56.901Z,0.70
2023-10-28T10:19:06.548Z,0.40
2023-10-28T10:23:11.955Z,0.60
2023-10-28T10:27:14.935Z,0.65
2023-10-28T10:31:22.466Z,0.47
2023-10-28T10:35:30.225Z,0.50
2023-10-28T10:39:48.115Z,0.50
2023-10-28T10:43:51.254Z,0.57
2023-10-28T10:47:55.406Z,0.30
2023-10-28T10:51:59.277Z,0.60
2023-10-28T10:56:04.721Z,0.30
2023-10-28T11:00:13.794Z,0.43
2023-10-28T11:04:17.856Z,0.60
2023-10-28T11:08:20.919Z,0.30
2023-10-28T11:12:26.606Z,0.30
2023-10-28T11:16:30.088Z,0.60
2023-10-28T11:20:33.767Z,0.43
2023-10-28T11:24:38.631Z,0.70
2023-10-28T11:28:46.129Z,0.60
2023-10-28T11:32:52.607Z,0.70
2023-10-28T11:36:57.181Z,0.77
2023-10-28T11:41:07.465Z,0.45
2023-10-28T11:45:12.965Z,0.50
2023-10-28T11:49:15.847Z,0.40
2023-10-28T11:53:19.514Z,1.40
2023-10-28T11:57:22.826Z,0.93
2023-10-28T12:01:31.025Z,0.30
2023-10-28T12:05:34.612Z,0.38
2023-10-28T12:09:39.116Z,0.40
2023-10-28T12:13:42.024Z,0.43
2023-10-28T12:17:48.663Z,0.38
2023-10-28T12:21:52.414Z,0.45
2023-10-28T12:25:56.814Z,0.30
2023-10-28T12:29:59.733Z,0.47
2023-10-28T12:34:05.039Z,0.40
2023-10-28T12:38:08.465Z,0.30
2023-10-28T12:42:12.152Z,0.50
2023-10-28T12:46:15.191Z,0.40
2023-10-28T12:50:20.273Z,0.50
2023-10-28T12:54:23.212Z,0.40
2023-10-28T12:58:27.373Z,0.30
2023-10-28T13:02:32.327Z,0.30
2023-10-28T13:06:38.130Z,0.40
2023-10-28T13:10:41.048Z,0.30
2023-10-28T13:14:44.805Z,0.32
2023-10-28T13:18:47.728Z,0.25
2023-10-28T13:22:53.199Z,0.30
2023-10-28T13:26:57.033Z,0.30
2023-10-28T13:31:01.033Z,0.50
2023-10-28T13:35:03.959Z,0.47
2023-10-28T13:39:09.683Z,0.30
2023-10-28T13:43:13.073Z,0.30
2023-10-28T13:47:18.134Z,0.30
2023-10-28T13:51:23.543Z,0.43
2023-10-28T13:55:30.113Z,0.45
2023-10-28T13:59:33.663Z,0.40
2023-10-28T14:03:37.819Z,0.50
2023-10-28T14:07:40.992Z,0.50
2023-10-28T14:11:47.233Z,0.68
2023-10-28T14:15:50.195Z,0.60
2023-10-28T14:19:54.067Z,0.52
2023-10-28T14:23:57.084Z,0.50
2023-10-28T14:28:01.715Z,0.70
2023-10-28T14:32:07.226Z,0.40
2023-10-28T14:36:12.085Z,0.40
2023-10-28T14:40:15.158Z,0.40
2023-10-28T14:44:20.405Z,0.40
2023-10-28T14:48:24.996Z,0.40
2023-10-28T14:52:28.712Z,0.47
2023-10-28T14:56:31.633Z,0.35
2023-10-28T15:00:37.099Z,0.68
2023-10-28T15:04:40.204Z,0.70
2023-10-28T15:08:44.103Z,0.50
2023-10-28T15:12:47.025Z,0.60
2023-10-28T15:16:52.141Z,0.60
2023-10-28T15:20:55.766Z,0.30
2023-10-28T15:24:59.449Z,0.60
2023-10-28T15:29:03.140Z,0.65
2023-10-28T15:33:08.895Z,0.47
2023-10-28T15:37:11.827Z,0.70
2023-10-28T15:41:15.944Z,0.50
2023-10-28T15:45:19.516Z,0.70
2023-10-28T15:49:24.832Z,0.70
2023-10-28T15:53:27.784Z,0.75
2023-10-28T15:57:31.404Z,1.00
2023-10-28T16:01:34.693Z,0.80
2023-10-28T16:05:39.351Z,0.90
2023-10-28T16:09:43.358Z,1.00
2023-10-28T16:13:47.195Z,0.88
2023-10-28T16:17:50.261Z,0.90
2023-10-28T16:21:55.330Z,0.80
2023-10-28T16:25:58.618Z,0.65
2023-10-28T16:30:02.697Z,0.80
2023-10-28T16:34:05.670Z,1.08
2023-10-28T16:38:23.733Z,1.30
2023-10-28T16:42:30.815Z,1.40
2023-10-28T16:46:34.784Z,1.20
2023-10-28T16:50:38.720Z,1.30
2023-10-28T16:54:43.794Z,1.33
2023-10-28T16:58:46.985Z,1.30
2023-10-28T17:02:50.805Z,1.20
2023-10-28T17:06:53.969Z,1.40
2023-10-28T17:11:01.284Z,1.40
2023-10-28T17:15:05.582Z,1.60
2023-10-28T17:19:09.451Z,1.58
2023-10-28T17:23:12.411Z,1.50
2023-10-28T17:27:25.321Z,1.60
2023-10-28T17:31:29.340Z,1.40
2023-10-28T17:35:33.425Z,1.70
2023-10-28T17:39:36.330Z,1.92
2023-10-28T17:43:42.031Z,1.58
2023-10-28T17:47:45.715Z,1.75
2023-10-28T17:51:50.083Z,1.60
2023-10-28T17:55:53.008Z,1.80
2023-10-28T17:59:58.172Z,1.38
2023-10-28T18:04:01.464Z,1.77
2023-10-28T18:08:05.888Z,1.80
2023-10-28T18:12:10.477Z,1.50
2023-10-28T18:16:15.652Z,1.50
2023-10-28T18:20:18.738Z,1.75
2023-10-28T18:24:22.634Z,1.50
2023-10-28T18:28:25.544Z,1.80
2023-10-28T18:32:37.940Z,1.70
2023-10-28T18:36:41.701Z,1.23
2023-10-28T18:40:45.507Z,1.40
2023-10-28T18:44:48.498Z,1.25
2023-10-28T18:48:54.020Z,1.40
2023-10-28T18:52:56.906Z,1.52
2023-10-28T18:57:00.208Z,1.52
2023-10-28T19:01:03.885Z,1.65
2023-10-28T19:05:10.830Z,1.33
2023-10-28T19:09:13.758Z,1.35
2023-10-28T19:13:17.481Z,1.45
2023-10-28T19:17:20.426Z,1.58
2023-10-28T19:21:25.595Z,1.48
2023-10-28T19:25:28.840Z,1.70
2023-10-28T19:29:33.244Z,1.80
2023-10-28T19:33:37.036Z,1.63
2023-10-28T19:37:43.370Z,1.80
2023-10-28T19:41:46.298Z,2.20
2023-10-28T19:45:50.143Z,2.70
2023-10-28T19:49:53.065Z,3.42
2023-10-28T19:53:58.042Z,3.13
2023-10-28T19:58:00.969Z,2.75
2023-10-28T20:02:04.954Z,2.58
2023-10-28T20:06:08.139Z,2.10
2023-10-28T20:10:13.407Z,2.97
2023-10-28T20:14:17.728Z,2.80
2023-10-28T20:18:21.489Z,2.40
2023-10-28T20:22:24.458Z,2.90
2023-10-28T20:26:29.776Z,2.67
2023-10-28T20:30:33.295Z,2.88
2023-10-28T20:34:37.020Z,2.15
2023-10-28T20:38:40.040Z,2.70
2023-10-28T20:42:45.406Z,2.60
2023-10-28T20:46:48.793Z,2.72
2023-10-28T20:50:52.851Z,2.63
2023-10-28T20:54:55.880Z,2.40
2023-10-28T20:59:02.216Z,2.35
2023-10-28T21:03:05.848Z,2.55
2023-10-28T21:07:10.679Z,2.20
2023-10-28T21:11:14.094Z,2.00
2023-10-28T21:15:19.173Z,2.15
2023-10-28T21:19:22.058Z,2.05
2023-10-28T21:23:25.936Z,2.05
2023-10-28T21:27:29.130Z,1.38
2023-10-28T21:31:33.756Z,1.80
2023-10-28T21:35:36.680Z,1.80
2023-10-28T21:39:40.406Z,1.70
2023-10-28T21:43:45.180Z,2.03
2023-10-28T21:47:50.251Z,1.85
2023-10-28T21:51:53.161Z,1.80
2023-10-28T21:56:01.596Z,2.22
2023-10-28T22:00:06.368Z,1.60
2023-10-28T22:04:34.073Z,1.60
2023-10-28T22:08:37.231Z,2.28
2023-10-28T22:12:40.595Z,1.85
2023-10-28T22:16:45.132Z,2.05
2023-10-28T22:20:51.437Z,1.70
2023-10-28T22:24:54.596Z,1.83
2023-10-28T22:28:57.828Z,1.83
2023-10-28T22:33:02.212Z,1.70
2023-10-28T22:37:07.397Z,1.95
2023-10-28T22:41:10.356Z,1.83
2023-10-28T22:45:14.132Z,1.60
2023-10-28T22:49:17.096Z,2.00
2023-10-28T22:53:21.705Z,1.80
2023-10-28T22:57:26.939Z,1.85
2023-10-28T23:01:30.273Z,2.22
2023-10-28T23:05:33.268Z,2.10
2023-10-28T23:09:38.271Z,2.22
2023-10-28T23:13:41.226Z,2.28
2023-10-28T23:17:44.735Z,1.75
2023-10-28T23:21:48.903Z,2.00
2023-10-28T23:25:53.500Z,1.90
2023-10-28T23:29:56.842Z,1.98
2023-10-28T23:34:00.163Z,2.00
2023-10-28T23:38:03.581Z,2.08
2023-10-28T23:42:08.971Z,2.03
2023-10-28T23:46:12.049Z,1.98
2023-10-28T23:50:15.392Z,2.00
2023-10-28T23:54:18.376Z,1.70
2023-10-28T23:58:23.297Z,2.00
